Flight Track Log - Related Links

Times and Time Zones

All times are in EDT time to prevent confusion due to time zone crossing. See the LKF43 flight status page for this flight to view local times or setup timezone preferences in your user account.


Time Position Orientation Groundspeed Altitude Reporting Facility
EDT Latitude Longitude Course Direction KTS MPH feet Rate Location/Type
Thu 06:10:36 PM 33.0872 -85.2339 322° Northwest 260 299 8,500  Level Atlanta Center
Thu 06:11:36 PM 33.1389 -85.2817 322° Northwest 231 266 10,300 1,850 Climbing Atlanta Center
Thu 06:12:36 PM 33.2200 -85.2978 351° North 245 282 12,200 2,000 Climbing Atlanta Center
Thu 06:13:36 PM 33.2992 -85.3139 350° North 275 316 14,300 2,050 Climbing Atlanta Center
Thu 06:14:36 PM 33.3764 -85.3322 349° North 280 322 16,300 1,350 Climbing Atlanta Center
Thu 06:15:36 PM 33.4617 -85.3511 350° North 292 336 17,000 1,000 Climbing Atlanta Center
Thu 06:16:36 PM 33.5575 -85.3700 351° North 322 371 18,300 1,750 Climbing Atlanta Center
Thu 06:17:36 PM 33.6428 -85.3911 348° North 330 380 20,500 2,150 Climbing Atlanta Center
Thu 06:18:36 PM 33.7303 -85.4100 350° North 318 366 22,600 2,100 Climbing Atlanta Center
Thu 06:19:36 PM 33.8136 -85.4264 351° North 310 357 24,700 1,950 Climbing Atlanta Center
Thu 06:20:36 PM 33.8864 -85.4425 350° North 303 349 26,500 1,900 Climbing Atlanta Center
Thu 06:21:36 PM 33.9656 -85.4614 349° North 297 342 28,500 1,700 Climbing Atlanta Center
Thu 06:22:36 PM 34.0489 -85.4806 349° North 291 335 29,900 1,350 Climbing Atlanta Center
Thu 06:23:36 PM 34.1322 -85.4969 351° North 301 346 31,200 1,400 Climbing Atlanta Center
Thu 06:24:36 PM 34.2194 -85.5183 349° North 314 361 32,700 1,150 Climbing Atlanta Center
Thu 06:25:36 PM 34.3172 -85.5403 349° North 319 367 33,500 700 Climbing Atlanta Center
Thu 06:26:36 PM 34.4028 -85.5594 350° North 335 386 34,100 650 Climbing Atlanta Center
Thu 06:27:36 PM 34.5047 -85.5814 350° North 346 398 34,800 550 Climbing Atlanta Center
Thu 06:28:36 PM 34.6108 -85.6061 349° North 367 422 35,200 600 Climbing Atlanta Center
Thu 06:29:36 PM 34.7169 -85.6308 349° North 383 441 36,000 800 Climbing Atlanta Center
Thu 06:30:36 PM 34.8272 -85.6556 350° North 395 455 36,800 850 Climbing Atlanta Center
Thu 06:31:36 PM 34.9375 -85.6806 349° North 395 455 37,700 950 Climbing Atlanta Center
Thu 06:32:36 PM 35.0436 -85.7056 349° North 395 455 38,700 950 Climbing Atlanta Center
Thu 06:33:36 PM 35.1517 -85.7331 348° North 389 448 39,600 672 Climbing Atlanta Center
Thu 06:34:32 PM 35.2642 -85.7567 350° North 388 447 40,000 259 Climbing Memphis Center
Thu 06:35:32 PM 35.3756 -85.7811 350° North 405 466 40,100  Climbing Memphis Center
Thu 06:36:32 PM 35.4933 -85.8103 349° North 417 480 40,000 -50 Descending Memphis Center
Thu 06:37:32 PM 35.6133 -85.8369 350° North 427 491 40,000  Level Memphis Center
Thu 06:38:32 PM 35.7206 -85.8592 350° North 432 497 40,000  Level Memphis Center
Thu 06:39:32 PM 35.8425 -85.8911 348° North 432 497 40,000  Level Memphis Center
Thu 06:40:32 PM 35.9644 -85.9178 350° North 437 503 40,000  Level Memphis Center
Thu 06:41:32 PM 36.0864 -85.9469 349° North 437 503 40,000  Level Memphis Center
Thu 06:42:32 PM 36.2083 -85.9739 350° North 437 503 40,000 50 Level Memphis Center
Thu 06:43:32 PM 36.3303 -86.0033 349° North 437 503 40,100  Climbing Memphis Center
Thu 06:44:21 PM 36.4306 -86.0278 349° North 443 510 40,000 -54 Descending Indianapolis Center
Thu 06:45:23 PM 36.5481 -86.0553 349° North 432 497 40,000  Level Indianapolis Center
Thu 06:46:25 PM 36.6675 -86.0839 349° North 433 498 40,000  Level Indianapolis Center
Thu 06:47:27 PM 36.7864 -86.1133 349° North 433 498 40,000 48 Level Indianapolis Center
Thu 06:48:29 PM 36.9275 -86.1464 349° North 438 504 40,100  Climbing Indianapolis Center
Thu 06:49:31 PM 37.0486 -86.1769 349° North 440 506 40,000 -48 Descending Indianapolis Center
Thu 06:50:33 PM 37.1708 -86.2053 350° North 443 510 40,000  Level Indianapolis Center
Thu 06:51:35 PM 37.2914 -86.2361 348° North 439 505 40,000  Level Indianapolis Center
Thu 06:52:37 PM 37.4103 -86.2644 349° North 434 499 40,000  Level Indianapolis Center
Thu 06:53:39 PM 37.5300 -86.2931 349° North 433 498 40,000  Level Indianapolis Center
Thu 06:54:41 PM 37.6689 -86.3281 349° North 433 498 40,000  Level Indianapolis Center
Thu 06:55:44 PM 37.7894 -86.3578 349° North 437 503 40,000 48 Level Indianapolis Center
Thu 06:56:46 PM 37.9050 -86.3869 349° North 448 516 40,100  Climbing Indianapolis Center
Thu 06:57:48 PM 38.0231 -86.4169 349° North 436 502 40,000 -48 Descending Indianapolis Center
Thu 06:58:50 PM 38.1664 -86.4519 349° North 439 505 40,000  Level Indianapolis Center
Thu 06:59:52 PM 38.2861 -86.4800 350° North 439 505 40,000  Level Indianapolis Center
Thu 07:00:54 PM 38.4067 -86.5119 348° North 442 509 40,000  Level Indianapolis Center
Thu 07:01:56 PM 38.5267 -86.5406 349° North 441 507 40,000 48 Level Indianapolis Center
Thu 07:02:58 PM 38.6461 -86.5728 348° North 440 506 40,100  Climbing Indianapolis Center
Thu 07:04:00 PM 38.7658 -86.6017 349° North 439 505 40,000 -48 Descending Indianapolis Center
Thu 07:05:02 PM 38.9097 -86.6397 348° North 440 506 40,000  Level Indianapolis Center
Thu 07:06:04 PM 39.0278 -86.6697 349° North 435 501 40,000  Level Indianapolis Center
Thu 07:07:06 PM 39.1469 -86.6994 349° North 434 499 40,000  Level Indianapolis Center
Thu 07:08:08 PM 39.2567 -86.7286 348° North 428 493 40,000  Level Indianapolis Center
Thu 07:09:10 PM 39.3756 -86.7594 349° North 432 497 40,000  Level Indianapolis Center
Thu 07:10:12 PM 39.5178 -86.7967 349° North 433 498 40,000  Level Indianapolis Center
Thu 07:11:14 PM 39.6369 -86.8272 349° North 434 499 40,000  Level Indianapolis Center
Thu 07:12:16 PM 39.7569 -86.8581 349° North 436 502 40,000 48 Level Indianapolis Center
Thu 07:13:18 PM 39.8753 -86.8889 349° North 433 498 40,100  Climbing Indianapolis Center
Thu 07:14:20 PM 39.9925 -86.9203 348° North 429 494 40,000 -48 Descending Indianapolis Center
Thu 07:15:22 PM 40.1092 -86.9517 348° North 428 493 40,000  Level Indianapolis Center
Thu 07:16:24 PM 40.2267 -86.9819 349° North 430 495 40,000 -823 Level Chicago Center
Thu 07:17:26 PM 40.3675 -87.0192 349° North 431 496 38,300 -1,790 Descending Chicago Center
Thu 07:18:28 PM 40.4728 -87.0467 349° North 394 453 36,300 -1,872 Descending Chicago Center
Thu 07:19:31 PM 40.5789 -87.0761 348° North 391 450 34,400 -1,839 Descending Chicago Center
Thu 07:20:32 PM 40.6950 -87.0883 355° North 413 475 32,500 -1,659 Descending Chicago Center
Thu 07:21:34 PM 40.8069 -87.1028 354° North 405 466 31,000 -726 Descending Chicago Center
Thu 07:22:36 PM 40.9394 -87.1189 355° North 402 463 31,000  Level Chicago Center
Thu 07:23:38 PM 41.0506 -87.1331 355° North 404 465 31,000  Level Chicago Center
Thu 07:24:40 PM 41.1631 -87.1475 354° North 408 470 31,000  Level Chicago Center
Thu 07:25:42 PM 41.2747 -87.1625 354° North 408 470 31,000 -387 Level Chicago Center
Thu 07:26:44 PM 41.3853 -87.1753 355° North 405 466 30,200 -1,680 Descending Chicago Center
Thu 07:27:47 PM 41.5153 -87.1947 354° North 396 456 27,500 -2,304 Descending Chicago Center
Thu 07:28:49 PM 41.6222 -87.2086 354° North 391 450 25,400 -1,694 Descending Chicago Center
Thu 07:29:51 PM 41.7292 -87.2225 354° North 391 450 24,000 -968 Descending Chicago Center
Thu 07:30:53 PM 41.8369 -87.2358 355° North 392 451 23,400 -1,306 Descending Chicago Center
Thu 07:31:55 PM 41.9386 -87.2517 353° North 379 436 21,300 -1,645 Descending Chicago Center
Thu 07:32:57 PM 42.0569 -87.2650 355° North 364 419 20,000 -629 Descending Chicago Center
Thu 07:33:59 PM 42.1575 -87.2772 355° North 367 422 20,000 -435 Level Chicago Center
Thu 07:35:01 PM 42.2575 -87.2906 354° North 365 420 19,100 -1,694 Descending Chicago Center
Thu 07:36:03 PM 42.3494 -87.3047 354° North 343 395 16,500 -1,500 Descending Chicago Center
Thu 07:37:05 PM 42.4431 -87.3153 355° North 336 387 16,000 -1,403 Descending Chicago Center
Thu 07:38:07 PM 42.5544 -87.3303 354° North 335 386 13,600 -2,400 Descending Chicago Center
Thu 07:39:10 PM 42.6328 -87.3697 340° North 316 364 11,000 -2,256 Descending Chicago Center
Thu 07:40:12 PM 42.6381 -87.4747 274° West 272 313 8,900 -1,887 Descending Chicago Center
Thu 07:41:14 PM 42.6269 -87.5750 261° West 269 310 7,100 -1,887 Descending Chicago Center
Thu 07:42:16 PM 42.6186 -87.6728 263° West 263 303 5,000 -2,081 Descending Chicago Center
Thu 07:43:18 PM 42.6158 -87.7675 268° West 256 295 2,800 -1,161 Descending Chicago Center
Thu 07:44:20 PM 42.5992 -87.8575 256° West 227 261 2,600 -194 Descending Chicago Center
Thu 07:45:22 PM 42.5747 -87.9114 238° Southwest 201 231 2,400 -377 Descending Chicago Center
Thu 07:47:47 PM 42.5833 -87.9667 282° West 103 119 1,300 -455 Descending KMKE
Thu 07:49:00 PM 42.5833 -87.9167 216° Southwest  Level FlightAware Approximate
Thu 07:56:00 PM 42.5957 -87.9278 216° Southwest  Level Estimated
Thu 07:57:00 PM 42.5957 -87.9278 216° Southwest  Level Estimated
Thu 07:58:00 PM 42.5957 -87.9278 216° Southwest  Level Estimated

Login

Don't have an account? Register now (free) for customized features, flight alerts, and more!